South Londonderry, Vermont
Current Conditions -  °F | °C
As of 10:54 AM on Sunday 21 Dec 2014 (Local Time) from KVSF Reporting Station
Light Snow Light Snow  
Wind Chill: 26°   Ceiling: 4200
Heat Index: 26°   Visibility: 2.5mi
Dew Point: 24°   Wind: 0mph
Humidity: 92%   Direction: NA
Pressure: 30.33"   Gusts: NA
Location:  43.15°N, 72.84°W
Report Text: KVSF 211554Z AUTO 00000KT 2 1/2SM -SN BR OVC042 M03/M04 A3033 RMK AO2 SLP280 P0001 T10331044 TSNO
Loading
Personal Weather Stations






























Interactive Weather Map New forecast layout! Learn more

10-Day Weather Forecast

Advertisements
Track Severe Weather on mobile